Ferreira, South Africa
Current Conditions -  °F | °C
As of 5:00 PM on Tuesday 21 Oct 2014 (Local Time) from FABL Reporting Station
Few Clouds Few Clouds  
Wind Chill: 90°   Ceiling: Unl
Heat Index: 90°   Visibility: 6mi
Dew Point: 12°   Wind: 10mph
Humidity: 6%   Direction: 240°WSW
Pressure: 30.03"   Gusts: NA
Location:  29.2°S, 26.18°E
Report Text: FABL 211500Z 24009KT 9999 FEW060TCU 32/M11 Q1017 NOSIG
Loading
Personal Weather Stations






























Interactive Weather Map
Tropical Storm Tracking
New forecast layout! Learn more

10-Day Weather Forecast

Advertisements
Track Severe Weather on mobile